Time;durP1;ratioP1;P1;durP2;ratioP2;P2;SDS_P1;SDS_P2;PMS_P1;PMS_P2;Temp;Humidity;BMP_temperature;BMP_pressure;BME280_temperature;BME280_humidity;BME280_pressure;Samples;Min_cycle;Max_cycle;Signal;HPM_P1;HPM_P2
2023/06/27 00:02:26;;;;;;;0.10;0.10;;;;;;;;;;5086777;28;20309;-76
2023/06/27 00:04:56;;;;;;;0.00;0.00;;;;;;;;;;5064773;28;20305;-77
2023/06/27 00:07:27;;;;;;;0.08;0.08;;;;;;;;;;5068882;28;20245;-76
2023/06/27 00:09:53;;;;;;;0.10;0.10;;;;;;;;;;5080352;28;20219;-77
2023/06/27 00:12:21;;;;;;;0.00;0.00;;;;;;;;;;5068429;28;20352;-77
2023/06/27 00:14:48;;;;;;;0.00;0.00;;;;;;;;;;5082120;28;20437;-77
2023/06/27 00:17:16;;;;;;;0.20;0.20;;;;;;;;;;5066553;28;20309;-77
2023/06/27 00:19:44;;;;;;;0.00;0.00;;;;;;;;;;5083374;28;20205;-77
2023/06/27 00:22:11;;;;;;;0.10;0.10;;;;;;;;;;5066080;28;20258;-77
2023/06/27 00:24:38;;;;;;;0.00;0.00;;;;;;;;;;5085389;28;20254;-77
2023/06/27 00:27:04;;;;;;;0.00;0.00;;;;;;;;;;5064582;28;20241;-77
2023/06/27 00:29:33;;;;;;;0.00;0.00;;;;;;;;;;5087126;28;20278;-77
2023/06/27 00:31:59;;;;;;;0.10;0.10;;;;;;;;;;5062395;28;20249;-77
2023/06/27 00:34:26;;;;;;;0.03;0.03;;;;;;;;;;5087629;28;20295;-77
2023/06/27 00:36:52;;;;;;;0.10;0.10;;;;;;;;;;5060175;28;20263;-77
2023/06/27 00:39:18;;;;;;;0.10;0.10;;;;;;;;;;5089026;28;20213;-77
2023/06/27 00:41:45;;;;;;;0.00;0.00;;;;;;;;;;5058085;28;20206;-77
2023/06/27 00:44:11;;;;;;;0.08;0.08;;;;;;;;;;5091433;28;20273;-77
2023/06/27 00:46:39;;;;;;;0.10;0.10;;;;;;;;;;5056432;28;20238;-77
2023/06/27 00:49:07;;;;;;;0.47;0.47;;;;;;;;;;5093021;28;20458;-78
2023/06/27 00:51:34;;;;;;;0.00;0.00;;;;;;;;;;5055312;28;20274;-77
2023/06/27 00:54:00;;;;;;;0.10;0.10;;;;;;;;;;5094188;28;20236;-77
2023/06/27 00:56:28;;;;;;;0.10;0.10;;;;;;;;;;5063601;28;20273;-77
2023/06/27 00:58:57;;;;;;;0.00;0.00;;;;;;;;;;5072119;28;20219;-78
2023/06/27 01:01:23;;;;;;;0.10;0.10;;;;;;;;;;5083586;28;20212;-77
2023/06/27 01:03:51;;;;;;;0.10;0.10;;;;;;;;;;5088677;28;20295;-77
2023/06/27 01:06:22;;;;;;;0.00;0.00;;;;;;;;;;5083789;28;20205;-77
2023/06/27 01:08:51;;;;;;;0.10;0.10;;;;;;;;;;5088638;28;20483;-77
2023/06/27 01:11:20;;;;;;;0.00;0.00;;;;;;;;;;5083775;28;20429;-77
2023/06/27 01:13:49;;;;;;;0.00;0.00;;;;;;;;;;5088646;28;20308;-77
2023/06/27 01:16:17;;;;;;;0.03;0.03;;;;;;;;;;5083340;28;20211;-77
2023/06/27 01:18:44;;;;;;;0.00;0.00;;;;;;;;;;5088634;28;20300;-77
2023/06/27 01:21:12;;;;;;;0.10;0.10;;;;;;;;;;5083691;28;20235;-76
2023/06/27 01:23:51;;;;;;;0.00;0.00;;;;;;;;;;5088611;28;20237;-77
2023/06/27 01:26:17;;;;;;;0.10;0.10;;;;;;;;;;5083281;28;20237;-77
2023/06/27 01:28:43;;;;;;;0.03;0.03;;;;;;;;;;5088493;28;20235;-77
2023/06/27 01:31:14;;;;;;;0.10;0.10;;;;;;;;;;5083305;28;20271;-77
2023/06/27 01:33:42;;;;;;;0.10;0.10;;;;;;;;;;5088387;28;20301;-77
2023/06/27 01:36:10;;;;;;;0.08;0.08;;;;;;;;;;5083245;28;20211;-77
2023/06/27 01:38:38;;;;;;;0.20;0.20;;;;;;;;;;5088322;28;20246;-77
2023/06/27 01:41:09;;;;;;;0.65;0.65;;;;;;;;;;5083199;28;20239;-77
2023/06/27 01:43:36;;;;;;;9.65;5.28;;;;;;;;;;5088492;28;20408;-77
2023/06/27 01:46:03;;;;;;;0.10;0.10;;;;;;;;;;5083440;28;20239;-77
2023/06/27 01:48:29;;;;;;;0.00;0.00;;;;;;;;;;5088404;28;20436;-77
2023/06/27 01:50:55;;;;;;;0.10;0.10;;;;;;;;;;5083166;28;20230;-77
2023/06/27 01:53:22;;;;;;;0.03;0.03;;;;;;;;;;5091144;28;20440;-76
2023/06/27 01:55:48;;;;;;;0.10;0.10;;;;;;;;;;5087919;28;20207;-78
2023/06/27 01:58:16;;;;;;;0.03;0.03;;;;;;;;;;5090356;28;20300;-77
2023/06/27 02:00:43;;;;;;;0.10;0.10;;;;;;;;;;5088536;28;20454;-77
2023/06/27 02:03:09;;;;;;;0.00;0.00;;;;;;;;;;5089470;28;20492;-76
2023/06/27 02:05:36;;;;;;;0.10;0.10;;;;;;;;;;5089487;28;20311;-77
2023/06/27 02:08:02;;;;;;;0.10;0.10;;;;;;;;;;5088468;28;20309;-77
2023/06/27 02:10:28;;;;;;;0.95;0.40;;;;;;;;;;5089848;28;20285;-77
2023/06/27 02:12:55;;;;;;;0.10;0.10;;;;;;;;;;5087340;28;20251;-78
2023/06/27 02:15:22;;;;;;;4.03;1.08;;;;;;;;;;5090946;28;20302;-78
2023/06/27 02:17:49;;;;;;;0.10;0.10;;;;;;;;;;5086548;28;20241;-77
2023/06/27 02:20:15;;;;;;;0.10;0.10;;;;;;;;;;5091667;28;20274;-76
2023/06/27 02:22:42;;;;;;;0.10;0.10;;;;;;;;;;5085450;28;20317;-77
2023/06/27 02:25:08;;;;;;;0.03;0.03;;;;;;;;;;5092582;28;20233;-77
2023/06/27 02:27:35;;;;;;;0.10;0.10;;;;;;;;;;5084567;28;20310;-77
2023/06/27 02:30:01;;;;;;;0.00;0.00;;;;;;;;;;5093253;28;20232;-77
2023/06/27 02:32:29;;;;;;;0.00;0.00;;;;;;;;;;5083497;28;20304;-77
2023/06/27 02:34:55;;;;;;;0.03;0.03;;;;;;;;;;5093847;28;20301;-77
2023/06/27 02:37:22;;;;;;;0.10;0.10;;;;;;;;;;5082881;28;20251;-76
2023/06/27 02:39:50;;;;;;;0.10;0.10;;;;;;;;;;5094872;28;20206;-77
2023/06/27 02:42:16;;;;;;;0.00;0.00;;;;;;;;;;5081856;28;20245;-77
2023/06/27 02:44:43;;;;;;;0.03;0.03;;;;;;;;;;5095514;28;20202;-77
2023/06/27 02:47:09;;;;;;;0.10;0.10;;;;;;;;;;5080955;28;20608;-77
2023/06/27 02:49:37;;;;;;;0.10;0.10;;;;;;;;;;5096453;28;20228;-77
2023/06/27 02:52:03;;;;;;;0.10;0.10;;;;;;;;;;5079911;28;20238;-77
2023/06/27 02:54:29;;;;;;;0.00;0.00;;;;;;;;;;5097014;28;20289;-77
2023/06/27 02:56:56;;;;;;;0.08;0.08;;;;;;;;;;5079042;28;20248;-77
2023/06/27 02:59:22;;;;;;;0.10;0.10;;;;;;;;;;5097876;28;20452;-77
2023/06/27 03:01:49;;;;;;;0.10;0.10;;;;;;;;;;5078026;28;20319;-77
2023/06/27 03:04:19;;;;;;;0.10;0.10;;;;;;;;;;5098579;28;20201;-77
2023/06/27 03:06:47;;;;;;;0.10;0.10;;;;;;;;;;5077538;28;20193;-77
2023/06/27 03:09:13;;;;;;;0.10;0.10;;;;;;;;;;5098676;28;20218;-77
2023/06/27 03:11:40;;;;;;;0.10;0.10;;;;;;;;;;5076472;28;20282;-76
2023/06/27 03:14:06;;;;;;;0.10;0.10;;;;;;;;;;5099726;28;20471;-77
2023/06/27 03:16:33;;;;;;;0.10;0.10;;;;;;;;;;5075683;28;20236;-76
2023/06/27 03:18:59;;;;;;;0.00;0.00;;;;;;;;;;5100686;28;20249;-77
2023/06/27 03:21:25;;;;;;;0.00;0.00;;;;;;;;;;5085578;28;20218;-77
2023/06/27 03:23:53;;;;;;;0.10;0.10;;;;;;;;;;5090498;28;20254;-77
2023/06/27 03:26:23;;;;;;;0.10;0.10;;;;;;;;;;5085450;28;20214;-76
2023/06/27 03:28:49;;;;;;;0.10;0.10;;;;;;;;;;5090340;28;20243;-76
2023/06/27 03:31:15;;;;;;;0.03;0.03;;;;;;;;;;5085400;28;20207;-76
2023/06/27 03:33:42;;;;;;;0.10;0.10;;;;;;;;;;5090320;28;20325;-77
2023/06/27 03:36:08;;;;;;;0.00;0.00;;;;;;;;;;5084967;28;20260;-76
2023/06/27 03:38:34;;;;;;;0.10;0.10;;;;;;;;;;5090265;28;20317;-76
2023/06/27 03:41:02;;;;;;;0.10;0.10;;;;;;;;;;5084995;28;20235;-76
2023/06/27 03:43:28;;;;;;;0.10;0.10;;;;;;;;;;5090066;28;20300;-76
2023/06/27 03:45:55;;;;;;;0.10;0.10;;;;;;;;;;5085080;28;20272;-76
2023/06/27 03:48:21;;;;;;;0.10;0.10;;;;;;;;;;5089162;28;20251;-76
2023/06/27 03:50:47;;;;;;;0.10;0.10;;;;;;;;;;5085741;28;20206;-76
2023/06/27 03:53:14;;;;;;;0.10;0.10;;;;;;;;;;5088135;28;20262;-76
2023/06/27 03:55:41;;;;;;;0.10;0.10;;;;;;;;;;5086331;28;20263;-77
2023/06/27 03:58:09;;;;;;;6.63;6.32;;;;;;;;;;5087186;28;20286;-76
2023/06/27 04:00:35;;;;;;;0.10;0.10;;;;;;;;;;5086868;28;20256;-76
2023/06/27 04:03:03;;;;;;;0.10;0.10;;;;;;;;;;5085791;28;20269;-75
2023/06/27 04:05:30;;;;;;;0.10;0.10;;;;;;;;;;5087406;28;20234;-76
2023/06/27 04:07:56;;;;;;;0.20;0.20;;;;;;;;;;5085444;28;20275;-76
2023/06/27 04:10:23;;;;;;;0.10;0.10;;;;;;;;;;5088186;28;20252;-75
2023/06/27 04:12:49;;;;;;;0.10;0.10;;;;;;;;;;5084463;28;20243;-76
2023/06/27 04:15:17;;;;;;;0.00;0.00;;;;;;;;;;5088628;28;20294;-76
2023/06/27 04:17:44;;;;;;;0.10;0.10;;;;;;;;;;5083654;28;20262;-76
2023/06/27 04:20:11;;;;;;;0.10;0.10;;;;;;;;;;5089894;28;20273;-76
2023/06/27 04:22:38;;;;;;;0.10;0.10;;;;;;;;;;5082696;28;20302;-76
2023/06/27 04:25:08;;;;;;;0.05;0.05;;;;;;;;;;5090653;28;20273;-76
2023/06/27 04:27:34;;;;;;;0.10;0.10;;;;;;;;;;5082358;28;20241;-76
2023/06/27 04:30:00;;;;;;;0.10;0.10;;;;;;;;;;5090782;28;20275;-76
2023/06/27 04:32:28;;;;;;;0.10;0.10;;;;;;;;;;5081111;28;20373;-76
2023/06/27 04:34:57;;;;;;;0.10;0.10;;;;;;;;;;5091706;28;20463;-77
2023/06/27 04:37:23;;;;;;;0.10;0.10;;;;;;;;;;5089069;28;20246;-76
2023/06/27 04:39:51;;;;;;;0.10;0.10;;;;;;;;;;5084259;28;20398;-77
2023/06/27 04:42:17;;;;;;;0.03;0.03;;;;;;;;;;5089116;28;20237;-76
2023/06/27 04:44:44;;;;;;;0.10;0.10;;;;;;;;;;5084165;28;20238;-76
2023/06/27 04:47:10;;;;;;;0.05;0.05;;;;;;;;;;5088962;28;20443;-76
2023/06/27 04:49:38;;;;;;;0.20;0.20;;;;;;;;;;5084112;28;20274;-76
2023/06/27 04:52:04;;;;;;;0.03;0.03;;;;;;;;;;5088453;28;20305;-77
2023/06/27 04:54:31;;;;;;;0.08;0.08;;;;;;;;;;5084238;28;20292;-76
2023/06/27 04:56:57;;;;;;;0.08;0.08;;;;;;;;;;5087533;28;20240;-77
2023/06/27 04:59:24;;;;;;;0.03;0.03;;;;;;;;;;5085114;28;20256;-77
2023/06/27 05:01:50;;;;;;;0.10;0.10;;;;;;;;;;5086514;28;20497;-77
2023/06/27 05:04:16;;;;;;;0.10;0.10;;;;;;;;;;5085861;28;20213;-76
2023/06/27 05:06:44;;;;;;;0.00;0.00;;;;;;;;;;5085574;28;20264;-76
2023/06/27 05:09:11;;;;;;;0.10;0.10;;;;;;;;;;5086447;28;20283;-77
2023/06/27 05:11:37;;;;;;;0.10;0.10;;;;;;;;;;5084725;28;20266;-77
2023/06/27 05:14:03;;;;;;;0.10;0.10;;;;;;;;;;5087631;28;20255;-77
2023/06/27 05:16:30;;;;;;;0.10;0.10;;;;;;;;;;5083668;28;20303;-76
2023/06/27 05:18:56;;;;;;;0.10;0.10;;;;;;;;;;5088193;28;20203;-76
2023/06/27 05:21:23;;;;;;;0.10;0.10;;;;;;;;;;5082866;28;20263;-76
2023/06/27 05:23:50;;;;;;;0.10;0.10;;;;;;;;;;5089591;28;20272;-75
2023/06/27 05:26:17;;;;;;;0.10;0.10;;;;;;;;;;5084012;28;20314;-76
2023/06/27 05:28:43;;;;;;;0.10;0.10;;;;;;;;;;5094355;28;20275;-76
2023/06/27 05:31:09;;;;;;;0.05;0.05;;;;;;;;;;5085046;28;20255;-76
2023/06/27 05:33:36;;;;;;;1.00;1.00;;;;;;;;;;5095010;28;20272;-76
2023/06/27 05:36:02;;;;;;;0.10;0.10;;;;;;;;;;5083934;28;20263;-76
2023/06/27 05:38:29;;;;;;;0.10;0.10;;;;;;;;;;5096100;28;20208;-76
2023/06/27 05:40:56;;;;;;;0.38;0.38;;;;;;;;;;5083094;28;20302;-76
2023/06/27 05:43:23;;;;;;;0.10;0.10;;;;;;;;;;5096393;28;20233;-76
2023/06/27 05:45:49;;;;;;;0.10;0.10;;;;;;;;;;5082143;28;20248;-76
2023/06/27 05:48:16;;;;;;;0.10;0.10;;;;;;;;;;5097503;28;20213;-76
2023/06/27 05:50:43;;;;;;;0.10;0.10;;;;;;;;;;5081225;28;20322;-77
2023/06/27 05:53:09;;;;;;;0.10;0.10;;;;;;;;;;5098220;28;20206;-76
2023/06/27 05:55:35;;;;;;;0.17;0.17;;;;;;;;;;5079947;28;20253;-76
2023/06/27 05:58:03;;;;;;;0.00;0.00;;;;;;;;;;5098866;28;20268;-76
2023/06/27 06:00:30;;;;;;;0.08;0.08;;;;;;;;;;5078810;28;20408;-76
2023/06/27 06:02:56;;;;;;;1.65;1.65;;;;;;;;;;5100100;28;20218;-76
2023/06/27 06:05:28;;;;;;;0.00;0.00;;;;;;;;;;5078390;28;20202;-75
2023/06/27 06:07:55;;;;;;;0.10;0.10;;;;;;;;;;5099446;28;20206;-76
2023/06/27 06:10:21;;;;;;;0.10;0.10;;;;;;;;;;5077728;28;20228;-77
2023/06/27 06:12:48;;;;;;;0.95;0.90;;;;;;;;;;5100909;28;20201;-77
2023/06/27 06:15:16;;;;;;;0.10;0.10;;;;;;;;;;5077230;28;20463;-76
2023/06/27 06:17:42;;;;;;;0.00;0.00;;;;;;;;;;5101222;28;20225;-77
2023/06/27 06:20:10;;;;;;;0.10;0.10;;;;;;;;;;5080507;28;20269;-76
2023/06/27 06:22:37;;;;;;;0.10;0.10;;;;;;;;;;5102054;28;20224;-76
2023/06/27 06:25:04;;;;;;;0.08;0.08;;;;;;;;;;5086843;28;20209;-77
2023/06/27 06:27:30;;;;;;;0.00;0.00;;;;;;;;;;5091723;28;20242;-77
2023/06/27 06:29:56;;;;;;;0.00;0.00;;;;;;;;;;5086606;28;20206;-76
2023/06/27 06:32:24;;;;;;;0.10;0.10;;;;;;;;;;5091575;28;20267;-76
2023/06/27 06:34:50;;;;;;;0.00;0.00;;;;;;;;;;5086553;28;20216;-76
2023/06/27 06:37:17;;;;;;;0.10;0.10;;;;;;;;;;5090713;28;20557;-76
2023/06/27 06:39:43;;;;;;;0.10;0.10;;;;;;;;;;5086550;28;20297;-77
2023/06/27 06:42:11;;;;;;;0.00;0.00;;;;;;;;;;5091459;28;20251;-77
2023/06/27 06:44:37;;;;;;;0.05;0.05;;;;;;;;;;5086369;28;20275;-76
2023/06/27 06:47:04;;;;;;;0.10;0.10;;;;;;;;;;5090529;28;20240;-77
2023/06/27 06:49:31;;;;;;;0.03;0.03;;;;;;;;;;5086738;28;20278;-76
2023/06/27 06:51:58;;;;;;;0.00;0.00;;;;;;;;;;5089819;28;20507;-76
2023/06/27 06:54:24;;;;;;;0.20;0.20;;;;;;;;;;5087520;28;20242;-77
2023/06/27 06:56:51;;;;;;;0.77;0.77;;;;;;;;;;5091211;28;20238;-77
2023/06/27 06:59:17;;;;;;;0.10;0.10;;;;;;;;;;5088113;28;20300;-76
2023/06/27 07:01:43;;;;;;;0.10;0.10;;;;;;;;;;5087758;28;20514;-77
2023/06/27 07:04:10;;;;;;;0.10;0.10;;;;;;;;;;5089108;28;20199;-76
2023/06/27 07:06:38;;;;;;;0.10;0.10;;;;;;;;;;5086786;28;20246;-76
2023/06/27 07:09:04;;;;;;;0.10;0.10;;;;;;;;;;5089483;28;20248;-76
2023/06/27 07:11:30;;;;;;;0.00;0.00;;;;;;;;;;5086009;28;20291;-76
2023/06/27 07:13:58;;;;;;;0.10;0.10;;;;;;;;;;5090332;28;20204;-75
2023/06/27 07:16:24;;;;;;;0.00;0.00;;;;;;;;;;5085003;28;20249;-74
2023/06/27 07:18:51;;;;;;;0.10;0.10;;;;;;;;;;5091291;28;20383;-75
2023/06/27 07:21:17;;;;;;;0.00;0.00;;;;;;;;;;5084010;28;20241;-76
2023/06/27 07:23:45;;;;;;;0.08;0.08;;;;;;;;;;5091908;28;20209;-73
2023/06/27 07:26:12;;;;;;;0.00;0.00;;;;;;;;;;5083515;28;20440;-73
2023/06/27 07:28:38;;;;;;;0.00;0.00;;;;;;;;;;5092315;28;20206;-75
2023/06/27 07:31:04;;;;;;;1.00;0.63;;;;;;;;;;5082063;28;20291;-74
2023/06/27 07:33:31;;;;;;;0.05;0.05;;;;;;;;;;5093488;28;20239;-75
2023/06/27 07:35:57;;;;;;;0.00;0.00;;;;;;;;;;5081332;28;20242;-79
2023/06/27 07:38:24;;;;;;;0.10;0.10;;;;;;;;;;5094202;28;20212;-75
2023/06/27 07:41:13;;;;;;;;;;;;;;;;;;;;;
2023/06/27 07:43:40;;;;;;;0.00;0.00;;;;;;;;;;5092087;28;20202;-74
2023/06/27 07:46:06;;;;;;;0.10;0.10;;;;;;;;;;5082274;28;20239;-76
2023/06/27 07:48:32;;;;;;;0.10;0.10;;;;;;;;;;5092724;28;20532;-74
2023/06/27 07:50:59;;;;;;;0.00;0.00;;;;;;;;;;5080558;28;20245;-78
2023/06/27 07:53:25;;;;;;;0.05;0.05;;;;;;;;;;5094097;28;20211;-76
2023/06/27 07:55:53;;;;;;;0.10;0.10;;;;;;;;;;5080179;28;20302;-75
2023/06/27 07:58:20;;;;;;;0.08;0.08;;;;;;;;;;5094624;28;20204;-71
2023/06/27 08:00:47;;;;;;;0.00;0.00;;;;;;;;;;5079480;28;20239;-71
2023/06/27 08:03:13;;;;;;;0.10;0.10;;;;;;;;;;5095496;28;20403;-71
2023/06/27 08:05:39;;;;;;;0.10;0.10;;;;;;;;;;5078401;28;20250;-71
2023/06/27 08:08:06;;;;;;;0.05;0.05;;;;;;;;;;5096089;28;20205;-71
2023/06/27 08:10:32;;;;;;;0.10;0.10;;;;;;;;;;5077355;28;20241;-71
2023/06/27 08:12:58;;;;;;;0.10;0.10;;;;;;;;;;5097122;28;20233;-71
2023/06/27 08:15:26;;;;;;;0.10;0.10;;;;;;;;;;5076419;28;20213;-71
2023/06/27 08:17:53;;;;;;;0.10;0.10;;;;;;;;;;5097532;28;20203;-71
2023/06/27 08:20:19;;;;;;;0.05;0.05;;;;;;;;;;5075763;28;20237;-72
2023/06/27 08:22:45;;;;;;;0.00;0.00;;;;;;;;;;5099041;28;20261;-72
2023/06/27 08:25:12;;;;;;;0.08;0.08;;;;;;;;;;5074506;28;20256;-72
2023/06/27 08:27:38;;;;;;;0.10;0.10;;;;;;;;;;5099604;28;20419;-72
2023/06/27 08:30:05;;;;;;;0.45;0.45;;;;;;;;;;5084398;28;20211;-72
2023/06/27 08:32:33;;;;;;;0.10;0.10;;;;;;;;;;5072581;28;20224;-72
2023/06/27 08:35:01;;;;;;;0.10;0.10;;;;;;;;;;5083831;28;20225;-72
2023/06/27 08:37:27;;;;;;;0.10;0.10;;;;;;;;;;5089206;28;20252;-72
2023/06/27 08:39:54;;;;;;;0.00;0.00;;;;;;;;;;5084345;28;20204;-72
2023/06/27 08:42:20;;;;;;;0.00;0.00;;;;;;;;;;5089114;28;20306;-72
2023/06/27 08:44:47;;;;;;;0.00;0.00;;;;;;;;;;5084278;28;20294;-72
2023/06/27 08:47:14;;;;;;;0.20;0.20;;;;;;;;;;5089092;28;20252;-72
2023/06/27 08:49:44;;;;;;;0.10;0.10;;;;;;;;;;5083702;28;20241;-72
2023/06/27 08:52:12;;;;;;;0.00;0.00;;;;;;;;;;5088950;28;20492;-72
2023/06/27 08:54:41;;;;;;;0.10;0.10;;;;;;;;;;5084166;28;20240;-72
2023/06/27 08:57:07;;;;;;;0.08;0.08;;;;;;;;;;5088708;28;20303;-72
2023/06/27 08:59:35;;;;;;;0.10;0.10;;;;;;;;;;5084096;28;20303;-72
2023/06/27 09:02:03;;;;;;;0.10;0.10;;;;;;;;;;5087600;28;20251;-73
2023/06/27 09:04:32;;;;;;;0.00;0.00;;;;;;;;;;5084618;28;20213;-72
2023/06/27 09:07:00;;;;;;;0.10;0.10;;;;;;;;;;5087599;28;20585;-72
2023/06/27 09:09:28;;;;;;;0.08;0.08;;;;;;;;;;5084491;28;20226;-73
2023/06/27 09:11:56;;;;;;;0.00;0.00;;;;;;;;;;5087216;28;20237;-72
2023/06/27 09:14:22;;;;;;;0.00;0.00;;;;;;;;;;5085696;28;20238;-72
2023/06/27 09:16:48;;;;;;;0.05;0.05;;;;;;;;;;5085815;28;20595;-72
2023/06/27 09:19:15;;;;;;;0.00;0.00;;;;;;;;;;5086449;28;20286;-72
2023/06/27 09:21:42;;;;;;;0.10;0.10;;;;;;;;;;5085180;28;20251;-72
2023/06/27 09:24:14;;;;;;;0.10;0.10;;;;;;;;;;5087038;28;20203;-72
2023/06/27 09:26:40;;;;;;;0.05;0.05;;;;;;;;;;5085001;28;20232;-72
2023/06/27 09:29:07;;;;;;;0.05;0.05;;;;;;;;;;5086393;28;20205;-72
2023/06/27 09:31:33;;;;;;;0.10;0.10;;;;;;;;;;5083037;28;20309;-72
2023/06/27 09:34:06;;;;;;;0.00;0.00;;;;;;;;;;5087157;28;20206;-73
2023/06/27 09:36:35;;;;;;;0.10;0.10;;;;;;;;;;5083892;28;20256;-72
2023/06/27 09:39:02;;;;;;;0.10;0.10;;;;;;;;;;5087542;28;20244;-72
2023/06/27 09:41:41;;;;;;;0.10;0.10;;;;;;;;;;5083458;28;20489;-72
2023/06/27 09:44:11;;;;;;;0.00;0.00;;;;;;;;;;5087137;28;20214;-72
2023/06/27 09:46:37;;;;;;;0.10;0.10;;;;;;;;;;5084352;28;20308;-72
2023/06/27 09:49:06;;;;;;;0.10;0.10;;;;;;;;;;5087566;28;20391;-72
2023/06/27 09:51:32;;;;;;;0.00;0.00;;;;;;;;;;5083778;28;20497;-72
2023/06/27 09:53:59;;;;;;;0.10;0.10;;;;;;;;;;5087658;28;20278;-72
2023/06/27 09:56:29;;;;;;;0.00;0.00;;;;;;;;;;5082780;28;20280;-72
2023/06/27 09:58:56;;;;;;;0.08;0.08;;;;;;;;;;5088180;28;20209;-72
2023/06/27 10:01:23;;;;;;;0.00;0.00;;;;;;;;;;5082124;28;20268;-72
2023/06/27 10:03:50;;;;;;;0.08;0.08;;;;;;;;;;5087990;28;20204;-73
2023/06/27 10:06:16;;;;;;;0.00;0.00;;;;;;;;;;5081136;28;20268;-72
2023/06/27 10:08:43;;;;;;;0.00;0.00;;;;;;;;;;5089601;28;20224;-72
2023/06/27 10:11:09;;;;;;;0.00;0.00;;;;;;;;;;5080491;28;20249;-71
2023/06/27 10:13:36;;;;;;;0.00;0.00;;;;;;;;;;5093103;28;20206;-73
2023/06/27 10:16:04;;;;;;;0.10;0.10;;;;;;;;;;5082673;28;20274;-74
2023/06/27 10:18:30;;;;;;;0.10;0.10;;;;;;;;;;5095104;28;20394;-73
2023/06/27 10:20:57;;;;;;;0.00;0.00;;;;;;;;;;5082560;28;20253;-74
2023/06/27 10:23:24;;;;;;;0.35;0.35;;;;;;;;;;5096059;28;20238;-73
2023/06/27 10:25:50;;;;;;;0.10;0.10;;;;;;;;;;5081722;28;20252;-73
2023/06/27 10:28:17;;;;;;;0.00;0.00;;;;;;;;;;5096823;28;20209;-72
2023/06/27 10:30:44;;;;;;;0.10;0.10;;;;;;;;;;5080545;28;20268;-72
2023/06/27 10:33:21;;;;;;;0.00;0.00;;;;;;;;;;5097534;28;20234;-72
2023/06/27 10:35:51;;;;;;;0.10;0.10;;;;;;;;;;5080929;28;20358;-72
2023/06/27 10:38:18;;;;;;;0.10;0.10;;;;;;;;;;5096049;28;20296;-72
2023/06/27 10:41:04;;;;;;;0.43;0.43;;;;;;;;;;5080596;28;20241;-72
2023/06/27 10:43:38;;;;;;;0.00;0.00;;;;;;;;;;5094218;28;20222;-72
2023/06/27 10:46:08;;;;;;;0.08;0.08;;;;;;;;;;5082806;28;20261;-73
2023/06/27 10:48:45;;;;;;;0.10;0.10;;;;;;;;;;5094114;28;20458;-73
2023/06/27 10:51:15;;;;;;;0.00;0.00;;;;;;;;;;5083825;28;20249;-73
2023/06/27 10:53:43;;;;;;;0.10;0.10;;;;;;;;;;5093092;28;20298;-73
2023/06/27 10:56:15;;;;;;;0.10;0.10;;;;;;;;;;5083300;28;20249;-73
2023/06/27 10:58:44;;;;;;;0.10;0.10;;;;;;;;;;5092755;28;20230;-73
2023/06/27 11:01:11;;;;;;;0.00;0.00;;;;;;;;;;5083814;28;20242;-73
2023/06/27 11:03:42;;;;;;;0.08;0.08;;;;;;;;;;5093409;28;20207;-73
2023/06/27 11:06:08;;;;;;;0.20;0.20;;;;;;;;;;5083036;28;20241;-73
2023/06/27 11:08:34;;;;;;;0.20;0.20;;;;;;;;;;5093490;28;20242;-73
2023/06/27 11:11:05;;;;;;;0.65;0.65;;;;;;;;;;5082117;28;20250;-74
2023/06/27 11:13:31;;;;;;;0.10;0.10;;;;;;;;;;5094045;28;20273;-73
2023/06/27 11:15:58;;;;;;;0.10;0.10;;;;;;;;;;5081285;28;20270;-73
2023/06/27 11:18:26;;;;;;;0.00;0.00;;;;;;;;;;5095029;28;20272;-72
2023/06/27 11:20:54;;;;;;;0.03;0.03;;;;;;;;;;5080528;28;20242;-72
2023/06/27 11:23:22;;;;;;;0.10;0.10;;;;;;;;;;5094926;28;20512;-73
2023/06/27 11:25:48;;;;;;;0.10;0.10;;;;;;;;;;5080014;28;20303;-73
2023/06/27 11:28:17;;;;;;;0.10;0.10;;;;;;;;;;5095747;28;20227;-73
2023/06/27 11:30:43;;;;;;;0.00;0.00;;;;;;;;;;5079550;28;20239;-71
2023/06/27 11:33:11;;;;;;;0.00;0.00;;;;;;;;;;5096071;28;20252;-69
2023/06/27 11:35:40;;;;;;;0.10;0.10;;;;;;;;;;5078872;28;20276;-71
2023/06/27 11:38:08;;;;;;;0.00;0.00;;;;;;;;;;5096658;28;20290;-72
2023/06/27 11:40:34;;;;;;;0.10;0.10;;;;;;;;;;5078115;28;20578;-75
2023/06/27 11:43:02;;;;;;;0.00;0.00;;;;;;;;;;5097218;28;20231;-72
2023/06/27 11:45:28;;;;;;;0.10;0.10;;;;;;;;;;5077181;28;20240;-72
2023/06/27 11:47:55;;;;;;;0.10;0.10;;;;;;;;;;5097839;28;20202;-72
2023/06/27 11:50:22;;;;;;;0.10;0.10;;;;;;;;;;5076380;28;20222;-72
2023/06/27 11:52:49;;;;;;;0.00;0.00;;;;;;;;;;5098939;28;20422;-73
2023/06/27 11:55:17;;;;;;;0.00;0.00;;;;;;;;;;5075061;28;20206;-73
2023/06/27 11:57:45;;;;;;;0.00;0.00;;;;;;;;;;5098970;28;20438;-72
2023/06/27 12:00:18;;;;;;;0.00;0.00;;;;;;;;;;5074838;28;20220;-73
2023/06/27 12:02:48;;;;;;;0.00;0.00;;;;;;;;;;5084636;28;20460;-72
2023/06/27 12:05:15;;;;;;;0.00;0.00;;;;;;;;;;5074802;28;20210;-73
2023/06/27 12:07:41;;;;;;;0.00;0.00;;;;;;;;;;5099220;28;20254;-72
2023/06/27 12:10:08;;;;;;;0.15;0.15;;;;;;;;;;5078622;28;20211;-73
2023/06/27 12:12:37;;;;;;;0.00;0.00;;;;;;;;;;5099933;28;20466;-73
2023/06/27 12:15:13;;;;;;;0.00;0.00;;;;;;;;;;5084221;28;20207;-71
2023/06/27 12:17:39;;;;;;;0.00;0.00;;;;;;;;;;5072875;28;20393;-71
2023/06/27 12:20:06;;;;;;;0.17;0.17;;;;;;;;;;5084373;28;20446;-72
2023/06/27 12:22:33;;;;;;;0.00;0.00;;;;;;;;;;5072833;28;20283;-72
2023/06/27 12:24:59;;;;;;;0.10;0.10;;;;;;;;;;5084052;28;20274;-72
2023/06/27 12:27:26;;;;;;;0.00;0.00;;;;;;;;;;5089344;28;20250;-72
2023/06/27 12:29:53;;;;;;;0.00;0.00;;;;;;;;;;5084086;28;20532;-72
2023/06/27 12:32:20;;;;;;;0.00;0.00;;;;;;;;;;5089382;28;20313;-72
2023/06/27 12:34:46;;;;;;;0.00;0.00;;;;;;;;;;5083686;28;20238;-72
2023/06/27 12:37:13;;;;;;;0.00;0.00;;;;;;;;;;5088937;28;20276;-72
2023/06/27 12:39:39;;;;;;;0.00;0.00;;;;;;;;;;5084288;28;20207;-71
2023/06/27 12:42:06;;;;;;;0.00;0.00;;;;;;;;;;5088830;28;20545;-72
2023/06/27 12:44:32;;;;;;;0.00;0.00;;;;;;;;;;5084300;28;20454;-71
2023/06/27 12:47:00;;;;;;;0.10;0.10;;;;;;;;;;5087783;28;20495;-72
2023/06/27 12:49:27;;;;;;;0.10;0.10;;;;;;;;;;5084765;28;20245;-72
2023/06/27 12:51:53;;;;;;;0.05;0.05;;;;;;;;;;5087010;28;20298;-72
2023/06/27 12:54:19;;;;;;;0.00;0.00;;;;;;;;;;5085821;28;20274;-72
2023/06/27 12:56:46;;;;;;;0.00;0.00;;;;;;;;;;5085901;28;20305;-72
2023/06/27 12:59:12;;;;;;;0.00;0.00;;;;;;;;;;5086370;28;20219;-71
2023/06/27 13:01:54;;;;;;;0.00;0.00;;;;;;;;;;5085101;28;20270;-72
2023/06/27 13:04:22;;;;;;;0.00;0.00;;;;;;;;;;5085790;28;20258;-71
2023/06/27 13:06:49;;;;;;;0.00;0.00;;;;;;;;;;5086312;28;20596;-72
2023/06/27 13:09:15;;;;;;;0.00;0.00;;;;;;;;;;5085780;28;20211;-72
2023/06/27 13:11:42;;;;;;;0.00;0.00;;;;;;;;;;5085259;28;20519;-71
2023/06/27 13:14:08;;;;;;;0.10;0.10;;;;;;;;;;5086916;28;20203;-72
2023/06/27 13:16:35;;;;;;;0.00;0.00;;;;;;;;;;5084282;28;20306;-71
2023/06/27 13:19:02;;;;;;;0.05;0.05;;;;;;;;;;5087534;28;20322;-72
2023/06/27 13:21:30;;;;;;;0.00;0.00;;;;;;;;;;5083769;28;20287;-72
2023/06/27 13:23:57;;;;;;;0.00;0.00;;;;;;;;;;5088792;28;20279;-72
2023/06/27 13:26:23;;;;;;;0.00;0.00;;;;;;;;;;5082856;28;20497;-72
2023/06/27 13:28:50;;;;;;;0.00;0.00;;;;;;;;;;5089287;28;20199;-72
2023/06/27 13:31:16;;;;;;;0.00;0.00;;;;;;;;;;5081824;28;20250;-72
2023/06/27 13:33:43;;;;;;;0.00;0.00;;;;;;;;;;5089863;28;20270;-72
2023/06/27 13:36:09;;;;;;;0.00;0.00;;;;;;;;;;5080803;28;20238;-76
2023/06/27 13:38:37;;;;;;;0.00;0.00;;;;;;;;;;5090705;28;20281;-73
2023/06/27 13:41:03;;;;;;;0.00;0.00;;;;;;;;;;5080147;28;20558;-73
2023/06/27 13:43:30;;;;;;;0.00;0.00;;;;;;;;;;5091704;28;20203;-73
2023/06/27 13:45:56;;;;;;;0.10;0.10;;;;;;;;;;5078914;28;20291;-72
2023/06/27 13:48:23;;;;;;;0.52;0.52;;;;;;;;;;5096321;28;20234;-73
2023/06/27 13:50:49;;;;;;;0.10;0.10;;;;;;;;;;5081905;28;20257;-72
2023/06/27 13:53:16;;;;;;;0.10;0.10;;;;;;;;;;5097194;28;20218;-73
2023/06/27 13:55:45;;;;;;;0.20;0.20;;;;;;;;;;5080925;28;20453;-73
2023/06/27 13:58:12;;;;;;;0.03;0.03;;;;;;;;;;5097687;28;20286;-73
2023/06/27 14:00:38;;;;;;;0.00;0.00;;;;;;;;;;5080446;28;20305;-73
2023/06/27 14:03:05;;;;;;;0.00;0.00;;;;;;;;;;5098498;28;20192;-72
2023/06/27 14:05:32;;;;;;;0.05;0.05;;;;;;;;;;5079339;28;20294;-73
2023/06/27 14:07:58;;;;;;;0.00;0.00;;;;;;;;;;5099600;28;20195;-73
2023/06/27 14:10:26;;;;;;;0.08;0.08;;;;;;;;;;5078216;28;20211;-73
2023/06/27 14:12:54;;;;;;;0.00;0.00;;;;;;;;;;5100057;28;20192;-73
2023/06/27 14:15:20;;;;;;;0.00;0.00;;;;;;;;;;5077638;28;20226;-72
2023/06/27 14:17:47;;;;;;;0.00;0.00;;;;;;;;;;5100746;28;20230;-73
2023/06/27 14:20:14;;;;;;;0.10;0.10;;;;;;;;;;5076666;28;20274;-75
2023/06/27 14:22:40;;;;;;;0.00;0.00;;;;;;;;;;5101526;28;20220;-75
2023/06/27 14:25:07;;;;;;;1.10;1.05;;;;;;;;;;5086223;28;20203;-75
2023/06/27 14:27:34;;;;;;;0.10;0.10;;;;;;;;;;5055011;28;20227;-76
2023/06/27 14:30:03;;;;;;;0.00;0.00;;;;;;;;;;5066291;28;20239;-75
2023/06/27 14:32:29;;;;;;;0.05;0.05;;;;;;;;;;5088552;28;20259;-76
2023/06/27 14:34:56;;;;;;;0.10;0.10;;;;;;;;;;5066197;28;20268;-75
2023/06/27 14:37:22;;;;;;;0.00;0.00;;;;;;;;;;5088439;28;20277;-78
2023/06/27 14:39:48;;;;;;;0.20;0.20;;;;;;;;;;5066440;28;20276;-75
2023/06/27 14:42:15;;;;;;;0.00;0.00;;;;;;;;;;5088377;28;20249;-75
2023/06/27 14:44:42;;;;;;;0.00;0.00;;;;;;;;;;5066315;28;20232;-76